AirNav   Air Wisconsin pilot careers
 
 1300 users online  

5B1 John H Boylan State Airport (Island Pond)
Island Pond, Vermont, USA


FAA INFORMATION EFFECTIVE 09 NOVEMBER 2017

Location

FAA Identifier: 5B1
Lat/Long: 44-47-23.9000N / 071-49-35.1000W
44-47.398333N / 071-49.585000W
44.7899722 / -71.8264167
(estimated)
Elevation: 1194 ft. / 363.9 m (surveyed)
Variation: 17W (1985)
From city: 3 miles SE of ISLAND POND, VT
Time zone: UTC -5 (UTC -4 during Daylight Saving Time)
Zip code: 05846

Airport Operations

Airport use: Open to the public
Activation date: 04/1964
Control tower: no
ARTCC: BOSTON CENTER
FSS: BURLINGTON FLIGHT SERVICE STATION
NOTAMs facility: BTV (NOTAM-D service available)
Attendance: UNATNDD
Wind indicator: yes
Segmented circle: yes

Airport Communications

CTAF: 122.9
WX AWOS-3 at CDA (16 nm SW): 119.275 (802-626-4532)
WX AWOS-3 at EFK (18 nm W): 118.275 (802-334-4427)
  • UNICOM FREQUENCY 122.9

Nearby radio navigation aids

VOR radial/distance  VOR name  Freq  Var
BMLr306/28.9BERLIN VOR/DME110.4017W
YSCr200/31.6SHERBROOKE VOR/DME113.2017W

 
NDB name  Hdg/Dist  Freq  Var  ID
MAHN004/26.438617WGMA --. -- .-

Airport Services

Parking: hangars and tiedowns
Airframe service: NONE
Powerplant service: NONE
Bottled oxygen: NONE
Bulk oxygen: NONE

Runway Information

Runway 14/32

Dimensions: 2650 x 120 ft. / 808 x 37 m
Surface: turf, in good condition
Runway edge markings: 14/32 THLDS MARKED WITH YELLOW CONES.
RUNWAY 14  RUNWAY 32
Latitude: 44-47.518923N44-47.277943N
Longitude: 071-49.839993W071-49.329378W
Elevation: 1194.0 ft.1172.0 ft.
Gradient: 0.9%0.8% UP
Traffic pattern: leftleft
Runway heading: 141 magnetic, 124 true321 magnetic, 304 true
Obstructions: 78 ft. trees, 590 ft. from runway, 160 ft. left of centerline, 7:1 slope to clear69 ft. trees, 394 ft. from runway, 125 ft. left of centerline, 5:1 slope to clear

Airport Ownership and Management from official FAA records

Ownership: Publicly-owned
Owner: STATE OF VERMONT
ONE NATIONAL LIFE DRIVE, VERMONT
MONTPELIER, VT 05633-5001
Phone (802) 828-1735
Manager: GUY ROUELLE
VTRANS AVIATION PROGRAM, 186 INDUSTRIAL LANE - BERLIN
BARRE, VT 05641
Phone (802) 828-1735

Airport Operational Statistics

Aircraft based on the field: 5
Single engine airplanes: 3
Ultralights: 2
    
Aircraft operations: avg 34/month *
66% transient general aviation
32% local general aviation
3% military
* for 12-month period ending 31 May 2017

Additional Remarks

SKI OPERATIONS IN WINTER.

Instrument Procedures

There are no published instrument procedures at 5B1.

Some nearby airports with instrument procedures:

KCDA - Caledonia County Airport (16 nm SW)
KEFK - Northeast Kingdom International Airport (18 nm W)
KHIE - Mount Washington Regional Airport (28 nm SE)
KBML - Berlin Regional Airport (31 nm SE)
KMVL - Morrisville-Stowe State Airport (37 nm SW)
 
Loc | Ops | Rwys | IFR | FBO | Links
Com | Nav | Svcs | Stats | Notes


 
Area around 5B1 (John H Boylan State Airport (Island Pond))
 
Road maps at: MapQuest Bing Google
 
Aerial photo
WARNING: Photo may not be current or correct
Aerial photo of 5B1 (John H Boylan State Airport (Island Pond))
Do you have a better or more recent aerial photo of John H Boylan State Airport (Island Pond) that you would like to share? If so, please send us your photo.

 
Sectional chart

 
Airport distance calculator
Flying to John H Boylan State Airport (Island Pond)? Find the distance to fly.

From to 5B1

Sunrise and sunset
Times for 20-Nov-2017
 Local
(UTC-5)
 Zulu
(UTC)
Morning civil twilight06:2011:20
Sunrise06:5211:52
Sunset16:1421:14
Evening civil twilight16:4621:46

Current date and time
Zulu (UTC)  20-Nov-2017 14:42:29
Local (UTC-5)  20-Nov-2017 09:42:29
 
METAR
KCDA 
16nm SW 
201415Z AUTO 24013G19KT 5SM -SN BKN019 BKN026 BKN032 M06/M10 A2979 RMK AO2 T10621102
KEFK 
18nm NW 
201415Z AUTO 00000KT 10SM SCT012 SCT026 OVC034 M07/M12 A2980 RMK AO2 T10721120
K1V4 
24nm S 
200154Z AUTO M01/M06 A2952 RMK AO1 SLP005 T10111056
KHIE 
28nm SE 
201409Z AUTO 26012G21KT 9SM FEW026 BKN033 OVC045 M04/M09 A2978 RMK AO2 SNE07 P0000 T10441094
KBML 
30nm SE 
201404Z AUTO 28008G21KT 230V330 7SM -SN BKN028 OVC038 M05/M11 A2973 RMK AO2 T10501111 PNO
TAF
KHIE 
28nm SE 
201120Z 2012/2112 28010KT 6SM -SHSN BKN025 OVC040 TEMPO 2012/2015 P6SM NSW SCT025 OVC040 FM201500 28013G23KT P6SM BKN050 FM202100 27007KT P6SM SCT050
NOTAMs
Click for the latest NOTAMs
NOTAMs are issued by the DoD/FAA and will open in a separate window not controlled by AirNav.

 

 
 

Would you like to see your business listed on this page?

 If your business provides an interesting product or service to pilots, flight crews, aircraft, or users of the John H Boylan State Airport (Island Pond), you should consider listing it here.  To start the listing process, click on the button below
 
Add a business
 

Other Pages about John H Boylan State Airport (Island Pond)

aviation.vermont.gov/...
 
Update a link
 
Copyright © AirNav, LLC. All rights reserved. Privacy Policy  Contact